sensor_id;sensor_type;location;lat;lon;timestamp;pressure;altitude;pressure_sealevel;temperature;humidity
71344;BME280;59146;43.850;25.948;2022-12-10T00:01:32;100452.38;;;5.45;99.14
71344;BME280;59146;43.850;25.948;2022-12-10T00:03:58;100460.69;;;5.53;99.25
71344;BME280;59146;43.850;25.948;2022-12-10T00:06:27;100420.06;;;5.33;98.86
71344;BME280;59146;43.850;25.948;2022-12-10T00:08:52;100440.47;;;5.41;98.83
71344;BME280;59146;43.850;25.948;2022-12-10T00:11:19;100479.31;;;5.62;98.60
71344;BME280;59146;43.850;25.948;2022-12-10T00:13:46;100432.41;;;5.27;98.90
71344;BME280;59146;43.850;25.948;2022-12-10T00:16:14;100471.66;;;5.59;98.77
71344;BME280;59146;43.850;25.948;2022-12-10T00:18:40;100459.09;;;5.50;99.12
71344;BME280;59146;43.850;25.948;2022-12-10T00:21:08;100485.53;;;5.58;99.22
71344;BME280;59146;43.850;25.948;2022-12-10T00:23:34;100501.59;;;5.67;98.99
71344;BME280;59146;43.850;25.948;2022-12-10T00:26:09;100485.16;;;5.68;99.55
71344;BME280;59146;43.850;25.948;2022-12-10T00:28:35;100451.66;;;5.63;98.19
71344;BME280;59146;43.850;25.948;2022-12-10T00:31:07;100455.41;;;5.56;97.91
71344;BME280;59146;43.850;25.948;2022-12-10T00:33:33;100448.75;;;5.49;98.36
71344;BME280;59146;43.850;25.948;2022-12-10T00:36:07;100442.38;;;5.57;98.71
71344;BME280;59146;43.850;25.948;2022-12-10T00:38:33;100460.84;;;5.70;98.42
71344;BME280;59146;43.850;25.948;2022-12-10T00:40:58;100436.28;;;5.58;98.62
71344;BME280;59146;43.850;25.948;2022-12-10T00:43:24;100444.00;;;5.60;98.27
71344;BME280;59146;43.850;25.948;2022-12-10T00:45:50;100476.81;;;5.81;98.40
71344;BME280;59146;43.850;25.948;2022-12-10T00:48:15;100404.53;;;5.33;98.33
71344;BME280;59146;43.850;25.948;2022-12-10T00:50:41;100409.53;;;5.38;98.34
71344;BME280;59146;43.850;25.948;2022-12-10T00:53:06;100456.00;;;5.62;98.57
71344;BME280;59146;43.850;25.948;2022-12-10T00:55:31;100454.25;;;5.63;98.67
71344;BME280;59146;43.850;25.948;2022-12-10T00:57:57;100435.25;;;5.62;98.66
71344;BME280;59146;43.850;25.948;2022-12-10T01:00:22;100432.59;;;5.64;98.33
71344;BME280;59146;43.850;25.948;2022-12-10T01:02:49;100455.81;;;5.67;98.62
71344;BME280;59146;43.850;25.948;2022-12-10T01:05:14;100366.53;;;5.12;98.71
71344;BME280;59146;43.850;25.948;2022-12-10T01:07:40;100400.47;;;5.26;98.67
71344;BME280;59146;43.850;25.948;2022-12-10T01:10:05;100444.78;;;5.40;98.88
71344;BME280;59146;43.850;25.948;2022-12-10T01:12:31;100410.06;;;5.24;99.89
71344;BME280;59146;43.850;25.948;2022-12-10T01:14:56;100408.00;;;5.32;99.93
71344;BME280;59146;43.850;25.948;2022-12-10T01:17:22;100402.88;;;5.31;99.27
71344;BME280;59146;43.850;25.948;2022-12-10T01:19:47;100381.22;;;5.33;99.44
71344;BME280;59146;43.850;25.948;2022-12-10T01:22:13;100466.88;;;5.92;99.71
71344;BME280;59146;43.850;25.948;2022-12-10T01:24:38;100391.22;;;5.42;97.81
71344;BME280;59146;43.850;25.948;2022-12-10T01:27:03;100422.03;;;5.48;97.80
71344;BME280;59146;43.850;25.948;2022-12-10T01:29:29;100389.84;;;5.34;98.55
71344;BME280;59146;43.850;25.948;2022-12-10T01:31:56;100369.16;;;5.32;98.33
71344;BME280;59146;43.850;25.948;2022-12-10T01:34:23;100419.31;;;5.51;98.11
71344;BME280;59146;43.850;25.948;2022-12-10T01:36:51;100376.41;;;5.24;98.58
71344;BME280;59146;43.850;25.948;2022-12-10T01:39:19;100384.69;;;5.32;98.87
71344;BME280;59146;43.850;25.948;2022-12-10T01:46:42;100412.06;;;5.59;97.86
71344;BME280;59146;43.850;25.948;2022-12-10T01:49:18;100405.13;;;5.60;98.13
71344;BME280;59146;43.850;25.948;2022-12-10T01:51:46;100319.94;;;5.12;98.24
71344;BME280;59146;43.850;25.948;2022-12-10T01:56:48;100385.44;;;5.36;97.29
71344;BME280;59146;43.850;25.948;2022-12-10T01:59:15;100404.38;;;5.36;97.77
71344;BME280;59146;43.850;25.948;2022-12-10T02:06:54;100407.75;;;5.38;98.64
71344;BME280;59146;43.850;25.948;2022-12-10T02:12:24;100411.81;;;5.24;100.00
71344;BME280;59146;43.850;25.948;2022-12-10T02:15:07;100424.31;;;5.34;100.00
71344;BME280;59146;43.850;25.948;2022-12-10T02:20:08;100422.16;;;5.24;100.00
71344;BME280;59146;43.850;25.948;2022-12-10T02:22:46;100361.09;;;4.98;100.00
71344;BME280;59146;43.850;25.948;2022-12-10T02:25:14;100420.22;;;5.50;100.00
71344;BME280;59146;43.850;25.948;2022-12-10T02:27:50;100369.56;;;5.23;99.72
71344;BME280;59146;43.850;25.948;2022-12-10T02:30:19;100443.00;;;5.42;99.21
71344;BME280;59146;43.850;25.948;2022-12-10T02:32:46;100432.66;;;5.21;100.00
71344;BME280;59146;43.850;25.948;2022-12-10T02:35:19;100446.03;;;5.32;100.00
71344;BME280;59146;43.850;25.948;2022-12-10T02:37:49;100440.25;;;5.25;99.40
71344;BME280;59146;43.850;25.948;2022-12-10T02:40:20;100392.75;;;5.05;98.91
71344;BME280;59146;43.850;25.948;2022-12-10T02:42:49;100454.75;;;5.29;99.34
71344;BME280;59146;43.850;25.948;2022-12-10T02:45:17;100389.16;;;5.07;99.33
71344;BME280;59146;43.850;25.948;2022-12-10T02:47:43;100393.41;;;5.10;99.31
71344;BME280;59146;43.850;25.948;2022-12-10T02:50:10;100369.19;;;4.89;98.98
71344;BME280;59146;43.850;25.948;2022-12-10T02:52:37;100358.06;;;4.87;99.36
71344;BME280;59146;43.850;25.948;2022-12-10T02:55:03;100380.25;;;4.93;99.36
71344;BME280;59146;43.850;25.948;2022-12-10T02:57:42;100455.53;;;5.31;99.42
71344;BME280;59146;43.850;25.948;2022-12-10T03:00:17;100441.69;;;5.11;99.05
71344;BME280;59146;43.850;25.948;2022-12-10T03:05:33;100460.72;;;5.31;98.68
71344;BME280;59146;43.850;25.948;2022-12-10T03:08:05;100468.31;;;5.36;99.14
71344;BME280;59146;43.850;25.948;2022-12-10T03:13:09;100378.59;;;4.92;98.11
71344;BME280;59146;43.850;25.948;2022-12-10T03:15:38;100434.09;;;5.28;98.53
71344;BME280;59146;43.850;25.948;2022-12-10T03:18:06;100432.41;;;5.27;98.67
71344;BME280;59146;43.850;25.948;2022-12-10T03:20:36;100386.03;;;4.99;99.19
71344;BME280;59146;43.850;25.948;2022-12-10T03:23:09;100354.03;;;4.80;99.27
71344;BME280;59146;43.850;25.948;2022-12-10T03:25:37;100388.91;;;5.13;99.38
71344;BME280;59146;43.850;25.948;2022-12-10T03:28:04;100383.63;;;5.16;99.27
71344;BME280;59146;43.850;25.948;2022-12-10T03:30:32;100420.66;;;5.40;99.75
71344;BME280;59146;43.850;25.948;2022-12-10T03:32:59;100343.56;;;5.05;99.44
71344;BME280;59146;43.850;25.948;2022-12-10T03:35:24;100416.94;;;5.25;99.51
71344;BME280;59146;43.850;25.948;2022-12-10T03:37:51;100377.78;;;5.11;99.83
71344;BME280;59146;43.850;25.948;2022-12-10T03:40:20;100353.34;;;5.18;99.46
71344;BME280;59146;43.850;25.948;2022-12-10T03:42:47;100345.56;;;4.98;99.26
71344;BME280;59146;43.850;25.948;2022-12-10T03:45:12;100406.69;;;5.22;99.61
71344;BME280;59146;43.850;25.948;2022-12-10T03:47:39;100356.78;;;4.97;99.88
71344;BME280;59146;43.850;25.948;2022-12-10T03:50:05;100427.34;;;5.45;99.80
71344;BME280;59146;43.850;25.948;2022-12-10T03:52:30;100375.66;;;5.42;98.94
71344;BME280;59146;43.850;25.948;2022-12-10T03:54:55;100393.09;;;5.59;96.91
71344;BME280;59146;43.850;25.948;2022-12-10T03:57:21;100421.28;;;5.67;96.92
71344;BME280;59146;43.850;25.948;2022-12-10T03:59:46;100385.44;;;5.36;96.91
71344;BME280;59146;43.850;25.948;2022-12-10T04:02:12;100334.28;;;4.99;97.38
71344;BME280;59146;43.850;25.948;2022-12-10T04:04:37;100389.25;;;5.27;97.88
71344;BME280;59146;43.850;25.948;2022-12-10T04:07:02;100391.81;;;5.27;98.37
71344;BME280;59146;43.850;25.948;2022-12-10T04:09:28;100340.47;;;4.95;98.66
71344;BME280;59146;43.850;25.948;2022-12-10T04:12:00;100337.47;;;4.84;98.83
71344;BME280;59146;43.850;25.948;2022-12-10T04:14:26;100324.06;;;4.96;98.46
71344;BME280;59146;43.850;25.948;2022-12-10T04:17:11;100374.78;;;5.22;98.58
71344;BME280;59146;43.850;25.948;2022-12-10T04:19:37;100359.81;;;5.08;98.73
71344;BME280;59146;43.850;25.948;2022-12-10T04:22:02;100387.16;;;5.15;99.24
71344;BME280;59146;43.850;25.948;2022-12-10T04:24:46;100392.66;;;5.28;99.12
71344;BME280;59146;43.850;25.948;2022-12-10T04:27:33;100349.03;;;4.97;99.59
71344;BME280;59146;43.850;25.948;2022-12-10T04:30:00;100392.97;;;5.20;99.68
71344;BME280;59146;43.850;25.948;2022-12-10T04:32:28;100358.59;;;4.95;99.64
71344;BME280;59146;43.850;25.948;2022-12-10T04:34:54;100353.56;;;4.92;99.37
71344;BME280;59146;43.850;25.948;2022-12-10T04:37:19;100403.06;;;5.26;99.86
71344;BME280;59146;43.850;25.948;2022-12-10T04:39:46;100322.97;;;4.80;99.97
71344;BME280;59146;43.850;25.948;2022-12-10T04:42:11;100258.72;;;4.26;99.88
71344;BME280;59146;43.850;25.948;2022-12-10T04:44:37;100362.69;;;5.01;99.91
71344;BME280;59146;43.850;25.948;2022-12-10T04:47:04;100378.69;;;5.32;98.95
71344;BME280;59146;43.850;25.948;2022-12-10T04:49:30;100245.56;;;4.54;98.81
71344;BME280;59146;43.850;25.948;2022-12-10T04:51:55;100361.28;;;5.35;97.73
71344;BME280;59146;43.850;25.948;2022-12-10T04:54:21;100394.75;;;5.60;96.85
71344;BME280;59146;43.850;25.948;2022-12-10T04:56:46;100419.56;;;5.45;97.40
71344;BME280;59146;43.850;25.948;2022-12-10T04:59:12;100353.19;;;5.01;98.29
71344;BME280;59146;43.850;25.948;2022-12-10T05:01:38;100330.66;;;5.03;97.77
71344;BME280;59146;43.850;25.948;2022-12-10T05:04:05;100338.16;;;5.31;97.09
71344;BME280;59146;43.850;25.948;2022-12-10T05:06:31;100383.38;;;5.44;97.12
71344;BME280;59146;43.850;25.948;2022-12-10T05:08:57;100358.97;;;5.28;97.45
71344;BME280;59146;43.850;25.948;2022-12-10T05:11:24;100328.94;;;5.24;96.81
71344;BME280;59146;43.850;25.948;2022-12-10T05:13:52;100319.09;;;5.12;97.17
71344;BME280;59146;43.850;25.948;2022-12-10T05:16:19;100371.53;;;5.58;96.86
71344;BME280;59146;43.850;25.948;2022-12-10T05:18:45;100368.97;;;5.37;97.16
71344;BME280;59146;43.850;25.948;2022-12-10T05:21:13;100356.59;;;5.43;97.41
71344;BME280;59146;43.850;25.948;2022-12-10T05:23:42;100329.94;;;5.41;97.07
71344;BME280;59146;43.850;25.948;2022-12-10T05:26:13;100400.66;;;5.63;96.59
71344;BME280;59146;43.850;25.948;2022-12-10T05:28:41;100375.94;;;5.56;96.72
71344;BME280;59146;43.850;25.948;2022-12-10T05:31:25;100394.19;;;5.74;96.27
71344;BME280;59146;43.850;25.948;2022-12-10T05:33:53;100321.59;;;5.13;96.06
71344;BME280;59146;43.850;25.948;2022-12-10T05:36:21;100310.81;;;5.04;96.55
71344;BME280;59146;43.850;25.948;2022-12-10T05:38:47;100351.53;;;5.20;97.00
71344;BME280;59146;43.850;25.948;2022-12-10T05:41:15;100357.72;;;5.38;96.91
71344;BME280;59146;43.850;25.948;2022-12-10T05:43:41;100401.56;;;5.62;96.23
71344;BME280;59146;43.850;25.948;2022-12-10T05:46:11;100379.16;;;5.41;95.90
71344;BME280;59146;43.850;25.948;2022-12-10T05:48:37;100407.75;;;6.00;94.89
71344;BME280;59146;43.850;25.948;2022-12-10T05:51:11;100414.53;;;5.83;95.24
71344;BME280;59146;43.850;25.948;2022-12-10T05:53:37;100378.09;;;5.65;95.00
71344;BME280;59146;43.850;25.948;2022-12-10T05:56:14;100385.78;;;5.48;95.69
71344;BME280;59146;43.850;25.948;2022-12-10T05:58:41;100371.50;;;5.38;95.74
71344;BME280;59146;43.850;25.948;2022-12-10T06:01:13;100368.53;;;5.47;95.68
71344;BME280;59146;43.850;25.948;2022-12-10T06:03:39;100259.97;;;5.01;95.26
71344;BME280;59146;43.850;25.948;2022-12-10T06:06:05;100416.69;;;5.73;95.14
71344;BME280;59146;43.850;25.948;2022-12-10T06:08:31;100354.94;;;5.42;95.20
71344;BME280;59146;43.850;25.948;2022-12-10T06:11:04;100396.78;;;5.74;95.46
71344;BME280;59146;43.850;25.948;2022-12-10T06:13:30;100338.38;;;5.46;94.94
71344;BME280;59146;43.850;25.948;2022-12-10T06:15:56;100335.03;;;5.43;94.45
71344;BME280;59146;43.850;25.948;2022-12-10T06:18:21;100340.34;;;5.60;94.08
71344;BME280;59146;43.850;25.948;2022-12-10T06:20:47;100356.09;;;5.76;94.87
71344;BME280;59146;43.850;25.948;2022-12-10T06:23:13;100323.56;;;5.69;94.87
71344;BME280;59146;43.850;25.948;2022-12-10T06:25:38;100368.28;;;5.94;93.93
71344;BME280;59146;43.850;25.948;2022-12-10T06:28:05;100394.91;;;6.17;93.01
71344;BME280;59146;43.850;25.948;2022-12-10T06:30:31;100388.50;;;6.06;92.80
71344;BME280;59146;43.850;25.948;2022-12-10T06:32:56;100374.06;;;6.00;93.00
71344;BME280;59146;43.850;25.948;2022-12-10T06:35:21;100336.47;;;5.90;91.75
71344;BME280;59146;43.850;25.948;2022-12-10T06:37:48;100340.28;;;6.02;91.41
71344;BME280;59146;43.850;25.948;2022-12-10T06:40:14;100389.84;;;6.33;92.14
71344;BME280;59146;43.850;25.948;2022-12-10T06:42:39;100317.31;;;6.13;90.27
71344;BME280;59146;43.850;25.948;2022-12-10T06:45:05;100315.13;;;6.04;89.81
71344;BME280;59146;43.850;25.948;2022-12-10T06:47:30;100309.16;;;6.02;89.79
71344;BME280;59146;43.850;25.948;2022-12-10T06:49:56;100293.88;;;5.96;89.89
71344;BME280;59146;43.850;25.948;2022-12-10T06:52:21;100308.09;;;6.06;90.49
71344;BME280;59146;43.850;25.948;2022-12-10T06:54:47;100327.41;;;6.37;90.23
71344;BME280;59146;43.850;25.948;2022-12-10T06:57:12;100341.06;;;6.41;89.22
71344;BME280;59146;43.850;25.948;2022-12-10T06:59:37;100319.81;;;6.33;89.08
71344;BME280;59146;43.850;25.948;2022-12-10T07:02:03;100309.03;;;6.23;90.39
71344;BME280;59146;43.850;25.948;2022-12-10T07:04:28;100303.97;;;6.20;90.01
71344;BME280;59146;43.850;25.948;2022-12-10T07:06:54;100319.53;;;6.39;89.21
71344;BME280;59146;43.850;25.948;2022-12-10T07:09:19;100343.41;;;6.47;88.96
71344;BME280;59146;43.850;25.948;2022-12-10T07:11:44;100361.84;;;6.60;88.67
71344;BME280;59146;43.850;25.948;2022-12-10T07:14:14;100330.19;;;6.52;89.01
71344;BME280;59146;43.850;25.948;2022-12-10T07:16:40;100352.63;;;6.71;88.74
71344;BME280;59146;43.850;25.948;2022-12-10T07:19:06;100295.69;;;6.50;88.18
71344;BME280;59146;43.850;25.948;2022-12-10T07:21:33;100320.81;;;6.49;88.65
71344;BME280;59146;43.850;25.948;2022-12-10T07:24:18;100359.78;;;6.85;89.22
71344;BME280;59146;43.850;25.948;2022-12-10T07:26:45;100288.19;;;6.43;89.04
71344;BME280;59146;43.850;25.948;2022-12-10T07:29:16;100357.53;;;7.13;88.17
71344;BME280;59146;43.850;25.948;2022-12-10T07:31:41;100324.00;;;6.73;89.44
71344;BME280;59146;43.850;25.948;2022-12-10T07:34:07;100330.53;;;6.98;88.53
71344;BME280;59146;43.850;25.948;2022-12-10T07:36:32;100334.84;;;6.99;87.26
71344;BME280;59146;43.850;25.948;2022-12-10T07:38:58;100354.94;;;7.30;87.51
71344;BME280;59146;43.850;25.948;2022-12-10T07:41:24;100203.03;;;6.34;87.47
71344;BME280;59146;43.850;25.948;2022-12-10T07:43:50;100288.59;;;6.89;87.18
71344;BME280;59146;43.850;25.948;2022-12-10T07:46:27;100291.44;;;6.84;87.65
71344;BME280;59146;43.850;25.948;2022-12-10T07:48:54;100345.75;;;7.06;87.42
71344;BME280;59146;43.850;25.948;2022-12-10T07:51:20;100325.47;;;6.95;87.13
71344;BME280;59146;43.850;25.948;2022-12-10T07:53:47;100341.16;;;7.11;86.98
71344;BME280;59146;43.850;25.948;2022-12-10T07:56:13;100274.31;;;6.80;87.92
71344;BME280;59146;43.850;25.948;2022-12-10T07:58:45;100292.66;;;6.94;88.18
71344;BME280;59146;43.850;25.948;2022-12-10T08:01:13;100351.34;;;7.33;86.76
71344;BME280;59146;43.850;25.948;2022-12-10T08:03:39;100272.50;;;6.82;88.32
71344;BME280;59146;43.850;25.948;2022-12-10T08:06:10;100342.81;;;7.31;88.14
71344;BME280;59146;43.850;25.948;2022-12-10T08:08:37;100323.53;;;7.35;87.53
71344;BME280;59146;43.850;25.948;2022-12-10T08:11:05;100324.94;;;7.25;88.79
71344;BME280;59146;43.850;25.948;2022-12-10T08:13:33;100321.22;;;7.46;87.80
71344;BME280;59146;43.850;25.948;2022-12-10T08:16:14;100296.50;;;7.21;88.85
71344;BME280;59146;43.850;25.948;2022-12-10T08:18:40;100320.63;;;7.58;87.20
71344;BME280;59146;43.850;25.948;2022-12-10T08:21:12;100326.16;;;7.84;86.75
71344;BME280;59146;43.850;25.948;2022-12-10T08:23:38;100313.72;;;8.22;84.50
71344;BME280;59146;43.850;25.948;2022-12-10T08:26:10;100322.03;;;8.13;85.76
71344;BME280;59146;43.850;25.948;2022-12-10T08:28:36;100252.78;;;7.95;85.05
71344;BME280;59146;43.850;25.948;2022-12-10T08:31:02;100255.66;;;8.06;85.10
71344;BME280;59146;43.850;25.948;2022-12-10T08:33:28;100300.50;;;8.42;83.71
71344;BME280;59146;43.850;25.948;2022-12-10T08:35:57;100244.03;;;8.29;82.74
71344;BME280;59146;43.850;25.948;2022-12-10T08:38:23;100282.00;;;8.78;80.73
71344;BME280;59146;43.850;25.948;2022-12-10T08:40:49;100190.97;;;8.31;80.84
71344;BME280;59146;43.850;25.948;2022-12-10T08:43:14;100237.69;;;8.64;81.12
71344;BME280;59146;43.850;25.948;2022-12-10T08:45:39;100216.19;;;8.60;80.42
71344;BME280;59146;43.850;25.948;2022-12-10T08:48:05;100263.97;;;9.05;79.64
71344;BME280;59146;43.850;25.948;2022-12-10T08:50:30;100288.56;;;9.15;80.48
71344;BME280;59146;43.850;25.948;2022-12-10T08:52:55;100256.31;;;9.31;80.03
71344;BME280;59146;43.850;25.948;2022-12-10T08:55:21;100268.97;;;9.37;78.28
71344;BME280;59146;43.850;25.948;2022-12-10T08:57:46;100207.63;;;8.88;78.47
71344;BME280;59146;43.850;25.948;2022-12-10T09:00:12;100218.31;;;9.27;78.55
71344;BME280;59146;43.850;25.948;2022-12-10T09:02:38;100186.19;;;9.41;77.19
71344;BME280;59146;43.850;25.948;2022-12-10T09:05:04;100234.91;;;9.69;77.50
71344;BME280;59146;43.850;25.948;2022-12-10T09:07:30;100237.69;;;9.66;79.55
71344;BME280;59146;43.850;25.948;2022-12-10T09:09:55;100211.44;;;9.54;79.79
71344;BME280;59146;43.850;25.948;2022-12-10T09:12:21;100193.66;;;9.61;79.75
71344;BME280;59146;43.850;25.948;2022-12-10T09:14:46;100190.00;;;9.63;80.11
71344;BME280;59146;43.850;25.948;2022-12-10T09:17:12;100215.22;;;9.91;78.48
71344;BME280;59146;43.850;25.948;2022-12-10T09:19:37;100245.34;;;10.11;77.67
71344;BME280;59146;43.850;25.948;2022-12-10T09:22:02;100208.53;;;10.15;78.03
71344;BME280;59146;43.850;25.948;2022-12-10T09:24:28;100230.41;;;10.54;76.05
71344;BME280;59146;43.850;25.948;2022-12-10T09:26:53;100234.97;;;10.77;75.34
71344;BME280;59146;43.850;25.948;2022-12-10T09:29:19;100198.56;;;10.61;74.68
71344;BME280;59146;43.850;25.948;2022-12-10T09:31:44;100222.03;;;10.88;75.19
71344;BME280;59146;43.850;25.948;2022-12-10T09:34:10;100202.19;;;10.98;74.68
71344;BME280;59146;43.850;25.948;2022-12-10T09:36:35;100211.53;;;11.27;74.13
71344;BME280;59146;43.850;25.948;2022-12-10T09:39:01;100126.53;;;10.84;73.75
71344;BME280;59146;43.850;25.948;2022-12-10T09:49:21;100154.09;;;12.12;71.10
71344;BME280;59146;43.850;25.948;2022-12-10T09:51:49;100185.56;;;12.47;71.31
71344;BME280;59146;43.850;25.948;2022-12-10T09:54:38;100128.50;;;12.39;70.00
71344;BME280;59146;43.850;25.948;2022-12-10T09:57:07;100199.09;;;12.99;69.81
71344;BME280;59146;43.850;25.948;2022-12-10T09:59:37;100211.47;;;13.21;69.37
71344;BME280;59146;43.850;25.948;2022-12-10T10:04:56;100126.75;;;12.86;68.21
71344;BME280;59146;43.850;25.948;2022-12-10T10:07:26;100133.22;;;13.04;67.74
71344;BME280;59146;43.850;25.948;2022-12-10T10:09:58;100103.53;;;12.92;67.28
71344;BME280;59146;43.850;25.948;2022-12-10T10:12:27;100047.97;;;12.65;67.42
71344;BME280;59146;43.850;25.948;2022-12-10T10:14:52;100183.38;;;13.67;66.89
71344;BME280;59146;43.850;25.948;2022-12-10T10:17:33;100141.63;;;13.31;67.34
71344;BME280;59146;43.850;25.948;2022-12-10T10:20:00;100154.97;;;13.39;67.04
71344;BME280;59146;43.850;25.948;2022-12-10T10:22:26;100112.16;;;13.16;66.99
71344;BME280;59146;43.850;25.948;2022-12-10T10:24:52;100168.69;;;13.53;66.66
71344;BME280;59146;43.850;25.948;2022-12-10T10:27:26;100164.41;;;13.41;66.45
71344;BME280;59146;43.850;25.948;2022-12-10T10:29:54;100168.25;;;13.03;67.34
71344;BME280;59146;43.850;25.948;2022-12-10T10:32:25;100180.06;;;12.73;68.39
71344;BME280;59146;43.850;25.948;2022-12-10T10:34:56;100122.81;;;12.22;69.16
71344;BME280;59146;43.850;25.948;2022-12-10T10:37:26;100104.59;;;11.96;70.75
71344;BME280;59146;43.850;25.948;2022-12-10T10:39:56;100133.56;;;12.30;71.12
71344;BME280;59146;43.850;25.948;2022-12-10T10:42:36;100105.56;;;12.19;70.71
71344;BME280;59146;43.850;25.948;2022-12-10T10:45:06;100078.03;;;12.14;71.05
71344;BME280;59146;43.850;25.948;2022-12-10T10:48:08;100087.84;;;12.23;71.20
71344;BME280;59146;43.850;25.948;2022-12-10T10:50:40;100110.91;;;12.41;70.82
71344;BME280;59146;43.850;25.948;2022-12-10T10:55:53;100130.06;;;12.42;71.12
71344;BME280;59146;43.850;25.948;2022-12-10T10:58:20;100147.75;;;12.62;70.78
71344;BME280;59146;43.850;25.948;2022-12-10T11:01:02;100138.41;;;12.82;70.68
71344;BME280;59146;43.850;25.948;2022-12-10T11:03:29;100115.00;;;13.02;69.44
71344;BME280;59146;43.850;25.948;2022-12-10T11:05:57;100058.47;;;12.87;69.12
71344;BME280;59146;43.850;25.948;2022-12-10T11:08:25;100088.91;;;13.12;68.95
71344;BME280;59146;43.850;25.948;2022-12-10T11:11:00;100081.34;;;12.85;70.28
71344;BME280;59146;43.850;25.948;2022-12-10T11:13:31;100116.75;;;13.02;70.73
71344;BME280;59146;43.850;25.948;2022-12-10T11:16:12;100078.75;;;12.96;69.50
71344;BME280;59146;43.850;25.948;2022-12-10T11:18:43;100047.16;;;12.87;69.56
71344;BME280;59146;43.850;25.948;2022-12-10T11:21:18;100075.81;;;13.23;68.34
71344;BME280;59146;43.850;25.948;2022-12-10T11:23:54;100050.28;;;13.36;68.33
71344;BME280;59146;43.850;25.948;2022-12-10T11:37:34;100079.00;;;14.45;64.76
71344;BME280;59146;43.850;25.948;2022-12-10T11:45:27;100094.13;;;14.10;66.52
71344;BME280;59146;43.850;25.948;2022-12-10T11:50:35;100007.56;;;13.88;65.82
71344;BME280;59146;43.850;25.948;2022-12-10T11:56:16;100067.13;;;14.30;66.25
71344;BME280;59146;43.850;25.948;2022-12-10T11:58:48;100064.22;;;14.33;66.05
71344;BME280;59146;43.850;25.948;2022-12-10T12:02:09;100082.31;;;14.47;66.05
71344;BME280;59146;43.850;25.948;2022-12-10T12:04:27;100065.72;;;14.47;66.29
71344;BME280;59146;43.850;25.948;2022-12-10T12:15:02;100053.78;;;14.11;68.45
71344;BME280;59146;43.850;25.948;2022-12-10T12:17:42;100035.41;;;14.11;67.78
71344;BME280;59146;43.850;25.948;2022-12-10T12:22:43;100069.09;;;14.38;67.25
71344;BME280;59146;43.850;25.948;2022-12-10T12:25:22;100043.88;;;14.14;67.60
71344;BME280;59146;43.850;25.948;2022-12-10T12:27:57;100048.88;;;14.17;67.60
71344;BME280;59146;43.850;25.948;2022-12-10T12:30:25;100037.56;;;14.06;68.19
71344;BME280;59146;43.850;25.948;2022-12-10T12:33:38;100051.16;;;14.11;68.64
71344;BME280;59146;43.850;25.948;2022-12-10T12:35:47;100043.09;;;14.03;68.48
71344;BME280;59146;43.850;25.948;2022-12-10T12:41:04;100021.41;;;13.90;69.00
71344;BME280;59146;43.850;25.948;2022-12-10T12:46:04;99991.00;;;13.76;69.22
71344;BME280;59146;43.850;25.948;2022-12-10T12:48:48;99978.91;;;13.64;69.18
71344;BME280;59146;43.850;25.948;2022-12-10T12:51:26;100018.53;;;13.93;69.37
71344;BME280;59146;43.850;25.948;2022-12-10T12:53:54;100001.16;;;13.81;69.53
71344;BME280;59146;43.850;25.948;2022-12-10T12:56:59;99863.78;;;12.96;69.51
71344;BME280;59146;43.850;25.948;2022-12-10T12:59:39;99880.22;;;13.09;69.76
71344;BME280;59146;43.850;25.948;2022-12-10T13:02:20;99928.38;;;13.19;70.04
71344;BME280;59146;43.850;25.948;2022-12-10T13:04:48;100012.56;;;13.59;70.79
71344;BME280;59146;43.850;25.948;2022-12-10T13:09:48;100019.13;;;13.53;71.36
71344;BME280;59146;43.850;25.948;2022-12-10T13:17:34;100007.84;;;13.31;72.92
71344;BME280;59146;43.850;25.948;2022-12-10T13:20:32;100022.94;;;13.49;73.25
71344;BME280;59146;43.850;25.948;2022-12-10T13:23:00;100020.47;;;13.48;73.40
71344;BME280;59146;43.850;25.948;2022-12-10T13:25:54;100026.78;;;13.45;73.65
71344;BME280;59146;43.850;25.948;2022-12-10T13:28:30;100028.31;;;13.48;73.35
71344;BME280;59146;43.850;25.948;2022-12-10T13:41:42;99987.13;;;13.06;75.28
71344;BME280;59146;43.850;25.948;2022-12-10T13:44:50;99932.19;;;12.60;75.75
71344;BME280;59146;43.850;25.948;2022-12-10T13:48:15;99969.81;;;13.03;75.32
71344;BME280;59146;43.850;25.948;2022-12-10T13:50:38;99981.53;;;13.10;75.51
71344;BME280;59146;43.850;25.948;2022-12-10T14:06:32;99921.22;;;12.55;76.86
71344;BME280;59146;43.850;25.948;2022-12-10T14:09:20;99909.31;;;12.51;76.77
71344;BME280;59146;43.850;25.948;2022-12-10T14:12:22;99976.03;;;12.58;77.82
71344;BME280;59146;43.850;25.948;2022-12-10T14:14:43;99908.97;;;12.22;77.97
71344;BME280;59146;43.850;25.948;2022-12-10T14:17:17;99908.84;;;12.24;78.25
71344;BME280;59146;43.850;25.948;2022-12-10T14:19:45;99899.56;;;12.20;78.44
71344;BME280;59146;43.850;25.948;2022-12-10T14:22:33;99850.38;;;11.90;78.45
71344;BME280;59146;43.850;25.948;2022-12-10T14:25:03;99952.44;;;12.58;78.99
71344;BME280;59146;43.850;25.948;2022-12-10T14:27:30;99959.22;;;12.49;79.39
71344;BME280;59146;43.850;25.948;2022-12-10T14:30:15;99912.28;;;12.24;79.97
71344;BME280;59146;43.850;25.948;2022-12-10T14:32:41;99942.22;;;12.44;80.19
71344;BME280;59146;43.850;25.948;2022-12-10T14:35:13;99950.06;;;12.44;80.46
71344;BME280;59146;43.850;25.948;2022-12-10T14:37:42;99934.44;;;12.42;81.17
71344;BME280;59146;43.850;25.948;2022-12-10T14:40:09;99906.56;;;12.19;81.39
71344;BME280;59146;43.850;25.948;2022-12-10T14:42:43;99900.88;;;12.14;81.66
71344;BME280;59146;43.850;25.948;2022-12-10T14:45:13;99889.78;;;12.11;81.69
71344;BME280;59146;43.850;25.948;2022-12-10T14:47:40;99909.31;;;12.29;81.42